Time;durP1;ratioP1;P1;durP2;ratioP2;P2;SDS_P1;SDS_P2;PMS_P1;PMS_P2;Temp;Humidity;BMP_temperature;BMP_pressure;BME280_temperature;BME280_humidity;BME280_pressure;Samples;Min_cycle;Max_cycle;Signal;HPM_P1;HPM_P2
2021/05/17 00:02:22;;;;;;;15.52;5.07;;;;;;;;;;4961738;28;20034;-58
2021/05/17 00:04:48;;;;;;;15.98;4.57;;;;;;;;;;4975522;28;20581;-58
2021/05/17 00:07:15;;;;;;;17.05;5.28;;;;;;;;;;4976813;28;20034;-58
2021/05/17 00:09:40;;;;;;;12.35;4.78;;;;;;;;;;4975354;28;20052;-57
2021/05/17 00:12:07;;;;;;;17.60;5.22;;;;;;;;;;4974764;28;20079;-57
2021/05/17 00:14:32;;;;;;;23.05;5.22;;;;;;;;;;4976378;28;20033;-58
2021/05/17 00:16:58;;;;;;;19.98;5.32;;;;;;;;;;4975280;28;20030;-58
2021/05/17 00:19:23;;;;;;;27.80;5.72;;;;;;;;;;4974790;28;20417;-58
2021/05/17 00:21:49;;;;;;;13.38;4.85;;;;;;;;;;4973387;28;20032;-57
2021/05/17 00:24:15;;;;;;;20.98;5.15;;;;;;;;;;4958334;28;20899;-58
2021/05/17 00:26:43;;;;;;;22.63;5.85;;;;;;;;;;4973114;28;20079;-58
2021/05/17 00:29:09;;;;;;;8.85;4.70;;;;;;;;;;4974125;28;20426;-57
2021/05/17 00:31:38;;;;;;;14.80;4.68;;;;;;;;;;4966344;28;20462;-57
2021/05/17 00:34:07;;;;;;;16.73;5.68;;;;;;;;;;4973521;28;20038;-58
2021/05/17 00:36:33;;;;;;;11.85;5.18;;;;;;;;;;4978933;28;20037;-57
2021/05/17 00:38:59;;;;;;;14.55;5.68;;;;;;;;;;4982619;28;20039;-58
2021/05/17 00:41:27;;;;;;;18.15;6.55;;;;;;;;;;4976567;28;20040;-57
2021/05/17 00:43:54;;;;;;;17.73;5.72;;;;;;;;;;4974404;28;20069;-57
2021/05/17 00:46:20;;;;;;;22.17;5.88;;;;;;;;;;4974343;28;20069;-58
2021/05/17 00:48:48;;;;;;;17.08;6.25;;;;;;;;;;4974563;28;20050;-57
2021/05/17 00:51:15;;;;;;;23.73;6.30;;;;;;;;;;4976146;28;20117;-58
2021/05/17 00:53:43;;;;;;;25.13;5.90;;;;;;;;;;4975932;28;20062;-58
2021/05/17 00:56:09;;;;;;;24.85;6.70;;;;;;;;;;4972770;28;20068;-58
2021/05/17 00:58:35;;;;;;;16.52;5.20;;;;;;;;;;4973128;28;20128;-59
2021/05/17 01:01:05;;;;;;;25.00;7.20;;;;;;;;;;4964431;28;20517;-58
2021/05/17 01:03:35;;;;;;;16.92;5.63;;;;;;;;;;4973123;28;20117;-58
2021/05/17 01:06:01;;;;;;;18.83;5.85;;;;;;;;;;4975648;28;20034;-58
2021/05/17 01:08:33;;;;;;;18.73;6.03;;;;;;;;;;4978040;28;20040;-57
2021/05/17 01:11:01;;;;;;;21.35;7.03;;;;;;;;;;4974010;28;20029;-58
2021/05/17 01:13:30;;;;;;;22.73;6.60;;;;;;;;;;4974889;28;20029;-58
2021/05/17 01:16:00;;;;;;;20.50;6.47;;;;;;;;;;4972095;28;20080;-58
2021/05/17 01:18:27;;;;;;;21.35;7.13;;;;;;;;;;4974102;28;20066;-59
2021/05/17 01:20:57;;;;;;;23.55;6.95;;;;;;;;;;4960796;28;20061;-58
2021/05/17 01:25:48;;;;;;;22.38;7.82;;;;;;;;;;4973588;28;20097;-58
2021/05/17 01:28:20;;;;;;;19.80;6.68;;;;;;;;;;4974703;28;22070;-58
2021/05/17 01:30:46;;;;;;;23.15;6.47;;;;;;;;;;4972741;28;20049;-58
2021/05/17 01:33:15;;;;;;;35.10;7.25;;;;;;;;;;4974450;28;20076;-57
2021/05/17 01:35:41;;;;;;;30.23;7.38;;;;;;;;;;4960777;28;20497;-57
2021/05/17 01:38:12;;;;;;;28.30;7.45;;;;;;;;;;4960452;28;20125;-55
2021/05/17 01:40:44;;;;;;;27.77;7.13;;;;;;;;;;4973048;28;20025;-57
2021/05/17 01:43:14;;;;;;;18.98;6.55;;;;;;;;;;4972372;28;21069;-57
2021/05/17 01:45:39;;;;;;;24.63;7.10;;;;;;;;;;4974083;28;20109;-57
2021/05/17 01:48:06;;;;;;;23.45;6.55;;;;;;;;;;4974737;28;20030;-56
2021/05/17 01:50:35;;;;;;;17.13;6.47;;;;;;;;;;4974224;28;20096;-57
2021/05/17 01:53:01;;;;;;;25.05;6.50;;;;;;;;;;4958918;28;20053;-58
2021/05/17 01:55:27;;;;;;;14.85;6.20;;;;;;;;;;4972920;28;20037;-59
2021/05/17 01:58:15;;;;;;;16.75;6.07;;;;;;;;;;4971187;28;20040;-59
2021/05/17 02:00:41;;;;;;;19.33;5.95;;;;;;;;;;4977879;28;20458;-59
2021/05/17 02:03:09;;;;;;;21.48;6.25;;;;;;;;;;4978301;28;20643;-59
2021/05/17 02:05:35;;;;;;;11.93;4.85;;;;;;;;;;4974527;28;20040;-59
2021/05/17 02:08:01;;;;;;;13.88;4.97;;;;;;;;;;4974775;28;20026;-59
2021/05/17 02:10:27;;;;;;;20.08;4.97;;;;;;;;;;4972073;28;20117;-59
2021/05/17 02:12:56;;;;;;;17.08;5.75;;;;;;;;;;4977259;28;20034;-59
2021/05/17 02:15:22;;;;;;;18.05;5.00;;;;;;;;;;4982160;28;20048;-58
2021/05/17 02:18:09;;;;;;;26.42;5.97;;;;;;;;;;4978928;28;20045;-58
2021/05/17 02:20:37;;;;;;;14.55;5.28;;;;;;;;;;4977427;28;20048;-59
2021/05/17 02:23:04;;;;;;;16.48;4.95;;;;;;;;;;4977499;28;20026;-58
2021/05/17 02:25:30;;;;;;;21.10;5.70;;;;;;;;;;4976326;28;20030;-59
2021/05/17 02:27:57;;;;;;;19.42;5.55;;;;;;;;;;4977664;28;20778;-59
2021/05/17 02:30:25;;;;;;;20.02;4.75;;;;;;;;;;4976391;28;20651;-59
2021/05/17 02:32:51;;;;;;;15.68;4.60;;;;;;;;;;4975715;28;22036;-59
2021/05/17 02:35:18;;;;;;;11.38;5.00;;;;;;;;;;4965708;28;20061;-58
2021/05/17 02:37:44;;;;;;;21.90;5.70;;;;;;;;;;4975936;28;20119;-59
2021/05/17 02:40:10;;;;;;;18.75;5.57;;;;;;;;;;4974798;28;20034;-59
2021/05/17 02:42:41;;;;;;;17.38;5.63;;;;;;;;;;4974803;28;20093;-58
2021/05/17 02:45:07;;;;;;;15.85;5.28;;;;;;;;;;4965986;28;20030;-59
2021/05/17 02:47:34;;;;;;;10.43;4.38;;;;;;;;;;4977784;28;20033;-58
2021/05/17 02:50:00;;;;;;;18.23;4.35;;;;;;;;;;4963410;28;20594;-58
2021/05/17 02:52:30;;;;;;;19.25;5.30;;;;;;;;;;4976919;28;20082;-58
2021/05/17 02:55:01;;;;;;;21.48;5.30;;;;;;;;;;4977597;28;20030;-59
2021/05/17 02:57:36;;;;;;;14.90;4.95;;;;;;;;;;4975795;28;20117;-59
2021/05/17 03:00:07;;;;;;;19.95;5.60;;;;;;;;;;4960546;28;20191;-59
2021/05/17 03:02:38;;;;;;;15.57;5.28;;;;;;;;;;4974376;28;20030;-58
2021/05/17 03:05:05;;;;;;;24.52;5.80;;;;;;;;;;4975361;28;20117;-59
2021/05/17 03:07:37;;;;;;;20.15;6.63;;;;;;;;;;4978077;28;20018;-60
2021/05/17 03:10:04;;;;;;;22.85;6.00;;;;;;;;;;4960978;28;20030;-58
2021/05/17 03:12:30;;;;;;;31.15;6.22;;;;;;;;;;4960447;28;20109;-58
2021/05/17 03:14:57;;;;;;;24.23;7.00;;;;;;;;;;4976244;28;20033;-59
2021/05/17 03:17:22;;;;;;;24.58;7.15;;;;;;;;;;4962051;28;20034;-61
2021/05/17 03:19:48;;;;;;;26.63;7.30;;;;;;;;;;4975858;28;20486;-58
2021/05/17 03:22:17;;;;;;;29.55;7.03;;;;;;;;;;4957848;28;20035;-59
2021/05/17 03:24:44;;;;;;;26.52;6.88;;;;;;;;;;4976029;28;20045;-59
2021/05/17 03:27:18;;;;;;;30.27;7.93;;;;;;;;;;4973842;28;20133;-59
2021/05/17 03:29:44;;;;;;;23.38;6.63;;;;;;;;;;4976946;28;20032;-58
2021/05/17 03:32:09;;;;;;;33.67;7.68;;;;;;;;;;4979526;28;20021;-58
2021/05/17 03:34:35;;;;;;;26.63;7.65;;;;;;;;;;4975358;28;20037;-58
2021/05/17 03:37:00;;;;;;;31.50;8.50;;;;;;;;;;4971581;28;20053;-58
2021/05/17 03:39:25;;;;;;;33.72;8.05;;;;;;;;;;4976481;28;20240;-58
2021/05/17 03:41:51;;;;;;;36.83;7.97;;;;;;;;;;4960304;28;20164;-58
2021/05/17 03:44:16;;;;;;;33.90;9.38;;;;;;;;;;4975381;28;20041;-59
2021/05/17 03:46:44;;;;;;;40.97;9.10;;;;;;;;;;4975957;28;20034;-59
2021/05/17 03:49:10;;;;;;;31.23;8.52;;;;;;;;;;4975135;28;20458;-57
2021/05/17 03:51:39;;;;;;;39.50;10.15;;;;;;;;;;4975227;28;20034;-58
2021/05/17 03:54:05;;;;;;;53.95;10.88;;;;;;;;;;4975824;28;20038;-57
2021/05/17 03:56:31;;;;;;;24.45;8.82;;;;;;;;;;4978235;28;20607;-58
2021/05/17 03:58:56;;;;;;;35.80;10.07;;;;;;;;;;4974594;28;20037;-58
2021/05/17 04:01:24;;;;;;;24.17;8.95;;;;;;;;;;4974698;28;20038;-57
2021/05/17 04:03:54;;;;;;;34.78;8.73;;;;;;;;;;4976390;28;20037;-58
2021/05/17 04:14:46;;;;;;;34.03;9.55;;;;;;;;;;4961227;28;20129;-57
2021/05/17 04:17:13;;;;;;;33.90;10.45;;;;;;;;;;4965069;28;20520;-58
2021/05/17 04:19:39;;;;;;;36.17;9.55;;;;;;;;;;4973722;28;20101;-58
2021/05/17 04:22:07;;;;;;;32.92;9.20;;;;;;;;;;4966139;28;20140;-58
2021/05/17 04:24:37;;;;;;;33.00;8.82;;;;;;;;;;4975549;28;20200;-58
2021/05/17 04:27:02;;;;;;;26.05;9.15;;;;;;;;;;4972198;28;20180;-57
2021/05/17 04:29:35;;;;;;;26.58;8.32;;;;;;;;;;4976343;28;20034;-59
2021/05/17 04:32:00;;;;;;;24.02;8.68;;;;;;;;;;4976515;28;20474;-58
2021/05/17 04:34:26;;;;;;;24.80;8.55;;;;;;;;;;4960217;28;20030;-59
2021/05/17 04:36:53;;;;;;;24.00;8.60;;;;;;;;;;4974983;28;20030;-59
2021/05/17 04:39:21;;;;;;;30.17;8.55;;;;;;;;;;4974980;28;20140;-58
2021/05/17 04:41:49;;;;;;;22.15;7.85;;;;;;;;;;4959662;28;20048;-58
2021/05/17 04:44:15;;;;;;;23.15;8.13;;;;;;;;;;4982981;28;20047;-58
2021/05/17 04:46:41;;;;;;;24.38;8.80;;;;;;;;;;4974346;28;20043;-59
2021/05/17 04:49:08;;;;;;;28.15;8.20;;;;;;;;;;4976757;28;20026;-59
2021/05/17 04:51:37;;;;;;;26.13;8.23;;;;;;;;;;4957996;28;20640;-58
2021/05/17 04:54:07;;;;;;;27.10;8.98;;;;;;;;;;4974318;28;20046;-58
2021/05/17 04:56:35;;;;;;;18.88;8.18;;;;;;;;;;4975733;28;20999;-58
2021/05/17 04:59:03;;;;;;;29.98;8.60;;;;;;;;;;4961435;28;20034;-58
2021/05/17 05:01:28;;;;;;;25.67;8.50;;;;;;;;;;4975016;28;20135;-58
2021/05/17 05:03:56;;;;;;;22.25;8.48;;;;;;;;;;4975727;28;20121;-58
2021/05/17 05:06:22;;;;;;;25.67;9.23;;;;;;;;;;4974067;28;20122;-59
2021/05/17 05:08:50;;;;;;;21.35;9.00;;;;;;;;;;4975444;28;20466;-58
2021/05/17 05:11:16;;;;;;;23.85;7.70;;;;;;;;;;4973815;28;20038;-58
2021/05/17 05:13:42;;;;;;;24.38;7.63;;;;;;;;;;4962460;28;20084;-58
2021/05/17 05:16:10;;;;;;;19.60;7.65;;;;;;;;;;4971058;28;20703;-58
2021/05/17 05:18:35;;;;;;;20.98;7.53;;;;;;;;;;4974881;28;20033;-58
2021/05/17 05:21:00;;;;;;;28.60;8.20;;;;;;;;;;4974039;28;20049;-58
2021/05/17 05:23:28;;;;;;;18.42;7.15;;;;;;;;;;4972383;28;20038;-58
2021/05/17 05:28:23;;;;;;;21.05;7.35;;;;;;;;;;4957947;28;20049;-57
2021/05/17 05:30:58;;;;;;;21.95;8.40;;;;;;;;;;4972552;28;20030;-57
2021/05/17 05:33:26;;;;;;;21.42;7.90;;;;;;;;;;4952476;28;20480;-57
2021/05/17 05:35:58;;;;;;;23.60;7.43;;;;;;;;;;4974311;28;20026;-57
2021/05/17 05:38:24;;;;;;;19.83;7.18;;;;;;;;;;4973236;28;20109;-57
2021/05/17 05:40:54;;;;;;;24.00;7.72;;;;;;;;;;4972490;28;20083;-57
2021/05/17 05:43:20;;;;;;;15.93;7.22;;;;;;;;;;4972913;28;20026;-57
2021/05/17 05:45:46;;;;;;;20.05;7.55;;;;;;;;;;4973226;28;20049;-57
2021/05/17 05:48:12;;;;;;;13.18;6.88;;;;;;;;;;4980479;28;20041;-57
2021/05/17 05:50:41;;;;;;;23.08;7.43;;;;;;;;;;4978892;28;20160;-57
2021/05/17 05:53:06;;;;;;;12.43;7.13;;;;;;;;;;4982770;28;20449;-57
2021/05/17 05:55:32;;;;;;;13.43;6.25;;;;;;;;;;4977100;28;20638;-57
2021/05/17 05:57:58;;;;;;;11.73;6.53;;;;;;;;;;4975159;28;20034;-58
2021/05/17 06:00:29;;;;;;;17.10;6.28;;;;;;;;;;4976103;28;20512;-57
2021/05/17 06:02:55;;;;;;;13.02;6.32;;;;;;;;;;4979326;28;20041;-57
2021/05/17 06:05:21;;;;;;;10.02;5.78;;;;;;;;;;4978942;28;21125;-58
2021/05/17 06:08:01;;;;;;;11.90;5.70;;;;;;;;;;4969235;28;20045;-63
2021/05/17 06:10:35;;;;;;;9.38;5.47;;;;;;;;;;4960921;28;20068;-57
2021/05/17 06:13:03;;;;;;;11.88;5.28;;;;;;;;;;4945184;28;20042;-58
2021/05/17 06:15:29;;;;;;;9.30;5.65;;;;;;;;;;4962752;28;20062;-57
2021/05/17 06:17:57;;;;;;;12.80;5.68;;;;;;;;;;4962446;28;20060;-57
2021/05/17 06:20:25;;;;;;;9.45;5.43;;;;;;;;;;4980114;28;20033;-58
2021/05/17 06:22:51;;;;;;;13.10;5.32;;;;;;;;;;4977197;28;20038;-58
2021/05/17 06:25:19;;;;;;;12.45;5.60;;;;;;;;;;4974045;28;20023;-57
2021/05/17 06:27:47;;;;;;;11.57;6.07;;;;;;;;;;4962963;28;20024;-58
2021/05/17 06:30:13;;;;;;;12.85;6.43;;;;;;;;;;4971865;28;20030;-57
2021/05/17 06:32:41;;;;;;;12.18;5.60;;;;;;;;;;4971357;28;20057;-57
2021/05/17 06:35:08;;;;;;;11.02;6.10;;;;;;;;;;4963864;28;20030;-57
2021/05/17 06:37:35;;;;;;;13.75;6.25;;;;;;;;;;4969911;28;20923;-57
2021/05/17 06:40:01;;;;;;;11.20;6.13;;;;;;;;;;4968217;28;20053;-57
2021/05/17 06:42:27;;;;;;;11.88;6.03;;;;;;;;;;4977155;28;20039;-58
2021/05/17 06:44:52;;;;;;;9.27;5.90;;;;;;;;;;4957256;28;20065;-57
2021/05/17 06:47:21;;;;;;;10.00;5.70;;;;;;;;;;4956531;28;20053;-57
2021/05/17 06:49:50;;;;;;;14.60;5.38;;;;;;;;;;4966585;28;20038;-59
2021/05/17 06:52:17;;;;;;;11.27;5.63;;;;;;;;;;4963947;28;20664;-56
2021/05/17 06:54:43;;;;;;;9.13;5.07;;;;;;;;;;4971023;28;20033;-58
2021/05/17 06:57:21;;;;;;;10.30;4.65;;;;;;;;;;4968791;28;20088;-57
2021/05/17 06:59:54;;;;;;;7.43;4.80;;;;;;;;;;4970084;28;20031;-57
2021/05/17 07:02:20;;;;;;;8.23;4.97;;;;;;;;;;4970592;28;20755;-58
2021/05/17 07:04:57;;;;;;;11.13;5.07;;;;;;;;;;4966472;28;20092;-58
2021/05/17 07:07:31;;;;;;;9.40;5.30;;;;;;;;;;4967015;28;20026;-57
2021/05/17 07:12:41;;;;;;;8.13;5.28;;;;;;;;;;4970838;28;20172;-58
2021/05/17 07:15:07;;;;;;;8.07;4.68;;;;;;;;;;4968268;28;20954;-58
2021/05/17 07:17:32;;;;;;;9.57;4.40;;;;;;;;;;4955060;28;20065;-57
2021/05/17 07:19:58;;;;;;;7.68;4.75;;;;;;;;;;4951242;28;20129;-58
2021/05/17 07:25:07;;;;;;;6.15;4.20;;;;;;;;;;4955634;28;20046;-58
2021/05/17 07:27:33;;;;;;;5.90;3.60;;;;;;;;;;4968792;28;20038;-59
2021/05/17 07:29:58;;;;;;;8.18;3.53;;;;;;;;;;4964565;28;20552;-58
2021/05/17 07:32:24;;;;;;;6.35;3.50;;;;;;;;;;4964226;28;20604;-59
2021/05/17 07:34:50;;;;;;;6.47;3.63;;;;;;;;;;4966516;28;20108;-58
2021/05/17 07:37:16;;;;;;;6.47;4.10;;;;;;;;;;4965264;28;21734;-58
2021/05/17 07:39:42;;;;;;;4.55;3.40;;;;;;;;;;4962936;28;20177;-59
2021/05/17 07:42:09;;;;;;;7.60;4.05;;;;;;;;;;4971344;28;20023;-58
2021/05/17 07:44:34;;;;;;;6.97;4.10;;;;;;;;;;4975250;28;20401;-59
2021/05/17 07:47:02;;;;;;;8.05;3.72;;;;;;;;;;4976345;28;20037;-58
2021/05/17 07:49:39;;;;;;;10.23;4.43;;;;;;;;;;4976888;28;20042;-58
2021/05/17 07:52:06;;;;;;;4.95;3.53;;;;;;;;;;4976514;28;20038;-58
2021/05/17 07:54:36;;;;;;;8.13;4.43;;;;;;;;;;4974167;28;20136;-58
2021/05/17 07:57:01;;;;;;;8.52;3.50;;;;;;;;;;4975124;28;20125;-58
2021/05/17 07:59:30;;;;;;;7.88;4.57;;;;;;;;;;4975566;28;20484;-58
2021/05/17 08:01:56;;;;;;;9.52;4.70;;;;;;;;;;4974605;28;20137;-58
2021/05/17 08:04:24;;;;;;;9.20;4.90;;;;;;;;;;4965757;28;20034;-58
2021/05/17 08:06:55;;;;;;;9.45;5.28;;;;;;;;;;4973994;28;20665;-59
2021/05/17 08:09:22;;;;;;;9.88;5.97;;;;;;;;;;4976508;28;20365;-58
2021/05/17 08:11:49;;;;;;;9.60;6.00;;;;;;;;;;4971535;28;20030;-61
2021/05/17 08:14:18;;;;;;;10.45;6.05;;;;;;;;;;4957528;28;21090;-59
2021/05/17 08:16:46;;;;;;;9.18;6.07;;;;;;;;;;4974474;28;20039;-58
2021/05/17 08:19:11;;;;;;;8.23;4.93;;;;;;;;;;4960734;28;20030;-58
2021/05/17 08:21:37;;;;;;;10.52;6.35;;;;;;;;;;4960955;28;20021;-59
2021/05/17 08:24:03;;;;;;;8.35;6.28;;;;;;;;;;4974103;28;20085;-58
2021/05/17 08:26:29;;;;;;;10.90;6.07;;;;;;;;;;4971584;28;20113;-60
2021/05/17 08:28:55;;;;;;;9.55;5.68;;;;;;;;;;4972548;28;20537;-59
2021/05/17 08:31:24;;;;;;;9.32;5.50;;;;;;;;;;4958860;28;21864;-60
2021/05/17 08:33:49;;;;;;;9.10;5.88;;;;;;;;;;4971333;28;20040;-58
2021/05/17 08:36:16;;;;;;;8.45;5.00;;;;;;;;;;4960299;28;20026;-59
2021/05/17 08:38:42;;;;;;;8.10;5.35;;;;;;;;;;4974822;28;20125;-59
2021/05/17 08:41:08;;;;;;;11.82;5.85;;;;;;;;;;4957826;28;20063;-59
2021/05/17 08:43:38;;;;;;;6.38;5.15;;;;;;;;;;4973535;28;20038;-58
2021/05/17 08:46:04;;;;;;;7.60;5.35;;;;;;;;;;4974127;28;20105;-58
2021/05/17 08:48:32;;;;;;;7.05;5.15;;;;;;;;;;4972753;28;20104;-58
2021/05/17 08:51:00;;;;;;;10.40;5.85;;;;;;;;;;4958166;28;20041;-58
2021/05/17 08:53:29;;;;;;;8.63;5.35;;;;;;;;;;4974931;28;20151;-58
2021/05/17 08:55:54;;;;;;;8.32;5.07;;;;;;;;;;4968060;28;20105;-58
2021/05/17 08:58:20;;;;;;;9.95;5.10;;;;;;;;;;4972801;28;22155;-58
2021/05/17 09:00:48;;;;;;;14.13;6.35;;;;;;;;;;4990780;28;20064;-59
2021/05/17 09:03:14;;;;;;;10.00;4.63;;;;;;;;;;4973311;28;20047;-58
2021/05/17 09:05:46;;;;;;;10.05;5.35;;;;;;;;;;4975665;28;20395;-58
2021/05/17 09:08:11;;;;;;;7.03;4.60;;;;;;;;;;4973422;28;20038;-59
2021/05/17 09:10:38;;;;;;;6.75;4.15;;;;;;;;;;4958248;28;20021;-58
2021/05/17 09:13:12;;;;;;;8.02;4.80;;;;;;;;;;4974238;28;20039;-60
2021/05/17 09:15:49;;;;;;;10.02;5.05;;;;;;;;;;4973071;28;20904;-59
2021/05/17 09:18:21;;;;;;;7.50;4.90;;;;;;;;;;4959324;28;20036;-58
2021/05/17 09:20:52;;;;;;;9.95;5.03;;;;;;;;;;4960257;28;20038;-59
2021/05/17 09:23:24;;;;;;;7.75;4.78;;;;;;;;;;4976644;28;20037;-58
2021/05/17 09:26:14;;;;;;;9.50;5.18;;;;;;;;;;4979108;28;20038;-60
2021/05/17 09:28:41;;;;;;;6.25;4.53;;;;;;;;;;4968015;28;20037;-59
2021/05/17 09:31:08;;;;;;;8.85;4.55;;;;;;;;;;4961077;28;20026;-59
2021/05/17 09:33:42;;;;;;;6.93;4.15;;;;;;;;;;4977052;28;20088;-58
2021/05/17 09:36:26;;;;;;;9.97;5.03;;;;;;;;;;4964509;28;20152;-58
2021/05/17 09:38:56;;;;;;;7.32;4.45;;;;;;;;;;4965307;28;20304;-59
2021/05/17 09:41:21;;;;;;;8.82;5.07;;;;;;;;;;4963924;28;20112;-59
2021/05/17 09:43:47;;;;;;;10.95;4.32;;;;;;;;;;4974245;28;20026;-59
2021/05/17 09:46:12;;;;;;;12.07;5.07;;;;;;;;;;4976499;28;20057;-59
2021/05/17 09:48:47;;;;;;;6.65;4.63;;;;;;;;;;4966375;28;20037;-58
2021/05/17 09:51:14;;;;;;;10.25;4.75;;;;;;;;;;4974942;28;20066;-59
2021/05/17 09:53:43;;;;;;;10.18;4.65;;;;;;;;;;4981402;28;20050;-59
2021/05/17 09:56:11;;;;;;;8.68;4.90;;;;;;;;;;4978310;28;20946;-58
2021/05/17 09:58:38;;;;;;;6.18;4.70;;;;;;;;;;4975183;28;20534;-60
2021/05/17 10:01:07;;;;;;;8.43;5.15;;;;;;;;;;4978907;28;20039;-59
2021/05/17 10:03:34;;;;;;;10.20;4.43;;;;;;;;;;4978145;28;20029;-59
2021/05/17 10:05:59;;;;;;;7.55;4.10;;;;;;;;;;4980260;28;20121;-58
2021/05/17 10:08:25;;;;;;;8.10;4.78;;;;;;;;;;4952109;28;20027;-59
2021/05/17 10:10:51;;;;;;;5.85;4.40;;;;;;;;;;4974991;28;21737;-59
2021/05/17 10:13:21;;;;;;;5.68;4.00;;;;;;;;;;4976238;28;20039;-59
2021/05/17 10:15:48;;;;;;;5.78;4.13;;;;;;;;;;4975347;28;20700;-60
2021/05/17 10:18:14;;;;;;;6.60;4.30;;;;;;;;;;4979549;28;20037;-57
2021/05/17 10:20:40;;;;;;;8.27;3.95;;;;;;;;;;4977259;28;20041;-59
2021/05/17 10:23:06;;;;;;;5.65;3.40;;;;;;;;;;4973726;28;20026;-59
2021/05/17 10:25:33;;;;;;;4.72;3.78;;;;;;;;;;4975669;28;20041;-58
2021/05/17 10:28:00;;;;;;;6.20;3.20;;;;;;;;;;4977023;28;20015;-58
2021/05/17 10:30:34;;;;;;;5.15;3.55;;;;;;;;;;4976349;28;20591;-58
2021/05/17 10:33:01;;;;;;;6.53;3.60;;;;;;;;;;4975989;28;20038;-60
2021/05/17 10:35:27;;;;;;;4.32;3.45;;;;;;;;;;4965068;28;20025;-59
2021/05/17 10:38:11;;;;;;;5.43;3.05;;;;;;;;;;4972051;28;20034;-59
2021/05/17 10:40:40;;;;;;;4.97;2.63;;;;;;;;;;4976028;28;20049;-60
2021/05/17 10:48:18;;;;;;;6.60;3.53;;;;;;;;;;4981139;28;20038;-59
2021/05/17 10:50:48;;;;;;;8.55;3.90;;;;;;;;;;4975288;28;20030;-59
2021/05/17 10:53:35;;;;;;;7.65;4.20;;;;;;;;;;4976470;28;20140;-60
2021/05/17 10:56:00;;;;;;;5.78;3.83;;;;;;;;;;4974416;28;20462;-58
2021/05/17 11:01:48;;;;;;;5.53;3.60;;;;;;;;;;4974501;28;20048;-58
2021/05/17 11:04:23;;;;;;;10.75;3.60;;;;;;;;;;4979465;28;20031;-60
2021/05/17 11:07:25;;;;;;;8.43;4.00;;;;;;;;;;4972900;28;20238;-59
2021/05/17 11:09:56;;;;;;;7.85;3.90;;;;;;;;;;4974889;28;20041;-59
2021/05/17 11:12:31;;;;;;;5.07;3.78;;;;;;;;;;4958804;28;20490;-59
2021/05/17 11:15:08;;;;;;;5.00;3.33;;;;;;;;;;4973129;28;20042;-57
2021/05/17 11:17:52;;;;;;;10.15;3.45;;;;;;;;;;4976408;28;20546;-57
2021/05/17 11:20:37;;;;;;;7.43;3.38;;;;;;;;;;4975163;28;20525;-56
2021/05/17 11:23:02;;;;;;;12.38;3.45;;;;;;;;;;4976269;28;20041;-57
2021/05/17 11:25:43;;;;;;;6.43;3.38;;;;;;;;;;4975961;28;20058;-57
2021/05/17 11:28:11;;;;;;;13.90;3.67;;;;;;;;;;4975576;28;20030;-57
2021/05/17 11:30:42;;;;;;;5.95;4.05;;;;;;;;;;4976102;28;20146;-57
2021/05/17 11:33:17;;;;;;;8.20;3.67;;;;;;;;;;4975592;28;20053;-58
2021/05/17 11:36:00;;;;;;;6.85;3.20;;;;;;;;;;4976481;28;20044;-57
2021/05/17 11:38:26;;;;;;;4.35;2.78;;;;;;;;;;4978679;28;20852;-58
2021/05/17 11:40:54;;;;;;;6.00;2.50;;;;;;;;;;4964169;28;21004;-58
2021/05/17 11:43:21;;;;;;;2.97;2.55;;;;;;;;;;4950832;28;20160;-58
2021/05/17 11:45:48;;;;;;;4.38;2.47;;;;;;;;;;4969911;28;20034;-59
2021/05/17 11:48:14;;;;;;;5.28;2.80;;;;;;;;;;4974883;28;20022;-58
2021/05/17 11:50:39;;;;;;;5.07;1.60;;;;;;;;;;4979363;28;20038;-59
2021/05/17 11:53:11;;;;;;;4.15;2.10;;;;;;;;;;4964309;28;20061;-58
2021/05/17 11:55:50;;;;;;;4.50;1.42;;;;;;;;;;4970175;28;21030;-59
2021/05/17 11:58:27;;;;;;;0.80;0.77;;;;;;;;;;4972506;28;20030;-59
2021/05/17 12:01:11;;;;;;;1.77;0.98;;;;;;;;;;4980085;28;20041;-59
2021/05/17 12:03:43;;;;;;;0.93;0.65;;;;;;;;;;4978912;28;20228;-59
2021/05/17 12:06:16;;;;;;;2.63;0.60;;;;;;;;;;5056819;27;920108;-58
2021/05/17 12:08:41;;;;;;;1.70;0.93;;;;;;;;;;5060315;28;20040;-60
2021/05/17 12:11:11;;;;;;;1.92;1.50;;;;;;;;;;5042063;28;20032;-59
2021/05/17 12:13:47;;;;;;;2.15;1.65;;;;;;;;;;5042294;28;20035;-59
2021/05/17 12:16:22;;;;;;;3.20;2.25;;;;;;;;;;5059099;28;20596;-59
2021/05/17 12:18:55;;;;;;;4.22;2.35;;;;;;;;;;5043972;28;20046;-59
2021/05/17 12:21:20;;;;;;;3.95;2.67;;;;;;;;;;5060415;28;20028;-60
2021/05/17 12:23:48;;;;;;;3.50;2.20;;;;;;;;;;5044576;28;20032;-59
2021/05/17 12:26:14;;;;;;;5.00;2.75;;;;;;;;;;5058560;28;20029;-61
2021/05/17 12:28:40;;;;;;;2.63;2.42;;;;;;;;;;5040341;28;20036;-59
2021/05/17 12:31:05;;;;;;;3.67;2.38;;;;;;;;;;5061175;28;20047;-60
2021/05/17 12:33:30;;;;;;;3.63;2.15;;;;;;;;;;5042939;28;20032;-60
2021/05/17 12:35:57;;;;;;;4.13;1.80;;;;;;;;;;5027408;28;20035;-60
2021/05/17 12:38:23;;;;;;;4.13;2.17;;;;;;;;;;5061838;28;21635;-60
2021/05/17 12:40:49;;;;;;;3.03;2.08;;;;;;;;;;5027721;28;20766;-59
2021/05/17 12:43:21;;;;;;;3.08;1.65;;;;;;;;;;5044239;28;20048;-60
2021/05/17 12:45:53;;;;;;;4.20;2.25;;;;;;;;;;5055870;28;20804;-60
2021/05/17 12:48:21;;;;;;;3.10;1.75;;;;;;;;;;5044078;28;20062;-59
2021/05/17 12:50:50;;;;;;;2.42;1.77;;;;;;;;;;5061599;28;20415;-60
2021/05/17 12:53:19;;;;;;;2.78;1.73;;;;;;;;;;5043867;28;20412;-59
2021/05/17 12:55:55;;;;;;;3.70;1.73;;;;;;;;;;5040555;28;21098;-60
2021/05/17 12:58:40;;;;;;;2.35;1.75;;;;;;;;;;5058971;28;20641;-60
2021/05/17 13:01:06;;;;;;;2.97;1.60;;;;;;;;;;5039546;28;20047;-59
2021/05/17 13:03:36;;;;;;;1.30;1.20;;;;;;;;;;5043734;28;20027;-59
2021/05/17 13:06:01;;;;;;;2.13;1.88;;;;;;;;;;5024985;28;20102;-59
2021/05/17 13:08:36;;;;;;;3.92;2.08;;;;;;;;;;5041765;28;21157;-59
2021/05/17 13:11:05;;;;;;;2.80;2.08;;;;;;;;;;5022974;28;20063;-61
2021/05/17 13:13:47;;;;;;;4.28;2.03;;;;;;;;;;5039325;28;20709;-61
2021/05/17 13:16:28;;;;;;;3.30;2.40;;;;;;;;;;5018892;28;20493;-58
2021/05/17 13:18:55;;;;;;;3.80;2.08;;;;;;;;;;5022732;28;20029;-58
2021/05/17 13:21:31;;;;;;;3.45;2.47;;;;;;;;;;5028318;28;20380;-58
2021/05/17 13:32:09;;;;;;;4.38;2.47;;;;;;;;;;5008444;28;20041;-59
2021/05/17 13:34:35;;;;;;;2.78;2.25;;;;;;;;;;5027608;28;20082;-60
2021/05/17 13:37:00;;;;;;;6.80;2.83;;;;;;;;;;5027790;28;20025;-59
2021/05/17 13:39:26;;;;;;;6.43;3.05;;;;;;;;;;5027592;28;20029;-60
2021/05/17 13:41:52;;;;;;;7.85;3.65;;;;;;;;;;5005068;28;20020;-59
2021/05/17 13:44:18;;;;;;;6.63;2.85;;;;;;;;;;5026841;28;20036;-59
2021/05/17 13:46:44;;;;;;;3.90;2.45;;;;;;;;;;5006731;28;21946;-60
2021/05/17 13:49:10;;;;;;;5.15;2.40;;;;;;;;;;5006830;28;20056;-59
2021/05/17 13:51:37;;;;;;;5.40;1.98;;;;;;;;;;5026370;28;20120;-59
2021/05/17 13:54:05;;;;;;;5.43;2.03;;;;;;;;;;4995392;28;20027;-61
2021/05/17 13:56:30;;;;;;;5.32;2.03;;;;;;;;;;5026581;28;20028;-59
2021/05/17 13:58:56;;;;;;;2.25;1.60;;;;;;;;;;4992155;28;20114;-59
2021/05/17 14:01:24;;;;;;;1.98;1.40;;;;;;;;;;5009494;28;20028;-59
2021/05/17 14:03:51;;;;;;;2.75;1.20;;;;;;;;;;5029168;28;20114;-60
2021/05/17 14:06:17;;;;;;;2.47;1.50;;;;;;;;;;4977413;28;20044;-58
2021/05/17 14:08:42;;;;;;;2.78;1.48;;;;;;;;;;5011565;28;20025;-59
2021/05/17 14:11:08;;;;;;;3.25;1.67;;;;;;;;;;5024700;28;20727;-59
2021/05/17 14:13:36;;;;;;;2.70;1.70;;;;;;;;;;5028142;28;20032;-59
2021/05/17 14:16:05;;;;;;;3.40;1.20;;;;;;;;;;5006671;28;21223;-62
2021/05/17 14:18:30;;;;;;;2.20;1.40;;;;;;;;;;5008796;28;20535;-61
2021/05/17 14:20:56;;;;;;;1.73;1.00;;;;;;;;;;5010498;28;20025;-60
2021/05/17 14:23:24;;;;;;;1.30;1.00;;;;;;;;;;4995198;28;20834;-59
2021/05/17 14:25:50;;;;;;;1.58;1.00;;;;;;;;;;4996918;28;20538;-60
2021/05/17 14:28:16;;;;;;;3.45;1.10;;;;;;;;;;5009679;28;20051;-59
2021/05/17 14:30:42;;;;;;;1.45;1.05;;;;;;;;;;4975761;28;20037;-60
2021/05/17 14:33:10;;;;;;;2.97;1.80;;;;;;;;;;5030849;28;20029;-59
2021/05/17 14:35:36;;;;;;;2.10;1.40;;;;;;;;;;5024046;28;20505;-59
2021/05/17 14:38:01;;;;;;;3.22;1.38;;;;;;;;;;5028678;28;20044;-59
2021/05/17 14:40:29;;;;;;;3.25;1.20;;;;;;;;;;4993539;28;20056;-60
2021/05/17 14:42:55;;;;;;;2.35;0.90;;;;;;;;;;5006949;28;20033;-59
2021/05/17 14:45:21;;;;;;;0.77;0.77;;;;;;;;;;5027121;28;20479;-59
2021/05/17 14:47:47;;;;;;;1.92;1.17;;;;;;;;;;5005433;28;20036;-58
2021/05/17 14:50:13;;;;;;;2.22;1.55;;;;;;;;;;5008202;28;20017;-61
2021/05/17 14:52:41;;;;;;;3.22;1.70;;;;;;;;;;5006901;28;20029;-62
2021/05/17 14:55:08;;;;;;;3.15;1.70;;;;;;;;;;5010247;28;20033;-60
2021/05/17 14:57:35;;;;;;;3.38;1.88;;;;;;;;;;5027048;28;20527;-61
2021/05/17 15:00:03;;;;;;;3.30;1.98;;;;;;;;;;5009626;28;20024;-59
2021/05/17 15:02:29;;;;;;;4.45;1.95;;;;;;;;;;5008242;28;20028;-60
2021/05/17 15:04:55;;;;;;;4.70;2.45;;;;;;;;;;4995271;28;20032;-59
2021/05/17 15:07:21;;;;;;;6.72;2.83;;;;;;;;;;5005542;28;20049;-59
2021/05/17 15:09:46;;;;;;;3.75;2.42;;;;;;;;;;5004175;28;20025;-61
2021/05/17 15:12:12;;;;;;;5.05;3.08;;;;;;;;;;4988292;28;20084;-60
2021/05/17 15:14:40;;;;;;;7.25;3.03;;;;;;;;;;5004813;28;20112;-60
2021/05/17 15:17:08;;;;;;;7.13;3.95;;;;;;;;;;5006401;28;22053;-59
2021/05/17 15:19:33;;;;;;;5.47;3.53;;;;;;;;;;5007841;28;20037;-60